Nachod, Czech Republic
Current Conditions -  °F | °C
As of 6:00 AM on Thursday 27 Nov 2014 (Local Time) from LKPD Reporting Station
Overcast Overcast  
Wind Chill: 30°   Ceiling: 3000
Heat Index: 37°   Visibility: 6mi
Dew Point: 32°   Wind: 10mph
Humidity: 81%   Direction: 100°E
Pressure: 30.06"   Gusts: NA
Location:  50.42°N, 16.17°E
Report Text: LKPD 270400Z 10009KT 9999 OVC030 03/M00 Q1018 NOSIG
Loading
Personal Weather Stations






























Interactive Weather Map New forecast layout! Learn more

10-Day Weather Forecast

Advertisements
Track Severe Weather on mobile